Time;durP1;ratioP1;P1;durP2;ratioP2;P2;SDS_P1;SDS_P2;PMS_P1;PMS_P2;Temp;Humidity;BMP_temperature;BMP_pressure;BME280_temperature;BME280_humidity;BME280_pressure;Samples;Min_cycle;Max_cycle;Signal;HPM_P1;HPM_P2
2021/12/29 00:00:29;;;;;;;9.80;2.90;;;;;;;-145.18;100.00;47463.31;5065130;28;20282;-70
2021/12/29 00:02:56;;;;;;;13.00;3.23;;;;;;;-145.18;100.00;47465.25;5066754;28;20293;-70
2021/12/29 00:05:23;;;;;;;21.23;3.47;;;;;;;-145.18;100.00;47476.97;5066762;28;20277;-71
2021/12/29 00:07:48;;;;;;;11.50;3.07;;;;;;;-145.18;100.00;47451.56;5066855;28;20270;-70
2021/12/29 00:10:15;;;;;;;9.97;2.63;;;;;;;-145.18;100.00;47449.63;5065114;28;20732;-70
2021/12/29 00:12:45;;;;;;;12.93;3.40;;;;;;;-145.18;100.00;47449.63;5066253;28;20044;-70
2021/12/29 00:15:12;;;;;;;9.93;2.50;;;;;;;-145.18;100.00;47457.44;5065317;28;20356;-70
2021/12/29 00:17:42;;;;;;;12.33;2.90;;;;;;;-145.18;100.00;47469.16;5066628;28;20299;-70
2021/12/29 00:20:09;;;;;;;8.77;2.40;;;;;;;-145.18;100.00;47467.22;5066306;28;20268;-71
2021/12/29 00:22:34;;;;;;;9.50;3.33;;;;;;;-145.18;100.00;47478.94;5066941;28;20268;-71
2021/12/29 00:24:59;;;;;;;6.67;3.10;;;;;;;-145.18;100.00;47461.34;5066882;28;20265;-70
2021/12/29 00:27:25;;;;;;;6.63;2.97;;;;;;;-145.18;100.00;47461.34;5065248;28;20049;-70
2021/12/29 00:29:50;;;;;;;21.33;4.23;;;;;;;-145.18;100.00;47459.41;5066699;28;20044;-71
2021/12/29 00:32:16;;;;;;;15.20;5.03;;;;;;;-145.18;100.00;47469.16;5066049;28;20044;-71
2021/12/29 00:34:41;;;;;;;10.70;3.87;;;;;;;-145.18;100.00;47480.88;5066500;28;20068;-71
2021/12/29 00:37:06;;;;;;;10.00;3.67;;;;;;;-145.18;100.00;47469.16;5066719;28;20037;-70
2021/12/29 00:39:32;;;;;;;13.10;3.60;;;;;;;-145.18;100.00;47482.84;5066834;28;20041;-70
2021/12/29 00:41:57;;;;;;;15.70;4.53;;;;;;;-145.18;100.00;47484.78;5066048;28;21534;-70
2021/12/29 00:44:24;;;;;;;15.03;3.70;;;;;;;-145.18;100.00;47465.25;5066425;28;20041;-71
2021/12/29 00:46:53;;;;;;;11.77;4.73;;;;;;;-145.18;100.00;47469.16;5066235;28;20044;-71
2021/12/29 00:49:19;;;;;;;8.60;4.03;;;;;;;-145.18;100.00;47488.69;5066477;28;20356;-70
2021/12/29 00:51:45;;;;;;;14.90;4.97;;;;;;;-145.18;100.00;47469.16;5066148;28;20634;-71
2021/12/29 00:54:10;;;;;;;12.30;4.47;;;;;;;-145.18;100.00;47471.13;5067065;28;20258;-71
2021/12/29 00:56:37;;;;;;;8.07;3.90;;;;;;;-145.18;100.00;47473.06;5064382;28;20711;-71
2021/12/29 00:59:02;;;;;;;14.43;4.60;;;;;;;-145.18;100.00;47463.31;5066132;28;21202;-69
2021/12/29 01:01:29;;;;;;;12.80;4.27;;;;;;;-145.18;100.00;47453.53;5066209;28;20261;-69
2021/12/29 01:03:55;;;;;;;13.77;4.50;;;;;;;-145.18;100.00;47478.94;5065915;28;20032;-69
2021/12/29 01:06:21;;;;;;;12.40;4.67;;;;;;;-145.18;100.00;47480.88;5066575;28;20763;-69
2021/12/29 01:08:46;;;;;;;15.23;4.07;;;;;;;-145.18;100.00;47459.41;5069858;28;20304;-70
2021/12/29 01:11:12;;;;;;;6.97;3.27;;;;;;;-145.18;100.00;47459.41;4967632;28;20414;-69
2021/12/29 01:13:45;;;;;;;9.00;2.80;;;;;;;-145.18;100.00;47484.78;4948835;28;20063;-69
2021/12/29 01:18:56;;;;;;;8.27;3.50;;;;;;;-145.18;100.00;47447.66;4948637;28;20273;-69
2021/12/29 01:21:21;;;;;;;7.57;2.53;;;;;;;-145.18;100.00;47475.03;4948491;28;20281;-69
2021/12/29 01:23:47;;;;;;;8.80;3.23;;;;;;;-145.18;100.00;47480.88;4948990;28;20507;-70
2021/12/29 01:26:12;;;;;;;7.20;2.83;;;;;;;-145.18;100.00;47469.16;4948602;28;20349;-70
2021/12/29 01:28:38;;;;;;;5.43;2.50;;;;;;;-145.18;100.00;47484.78;4948887;28;20069;-70
2021/12/29 01:31:03;;;;;;;11.77;2.73;;;;;;;-145.18;100.00;47469.16;4948654;28;22053;-69
2021/12/29 01:33:29;;;;;;;8.07;3.03;;;;;;;-145.18;100.00;47478.94;4948989;28;20055;-69
2021/12/29 01:35:54;;;;;;;8.17;2.70;;;;;;;-145.18;100.00;47457.44;4946982;28;20130;-69
2021/12/29 01:38:20;;;;;;;7.80;3.03;;;;;;;-145.18;100.00;47455.47;4948784;28;20054;-69
2021/12/29 01:40:48;;;;;;;12.37;3.37;;;;;;;-145.18;100.00;47484.78;4948468;28;20595;-70
2021/12/29 01:43:16;;;;;;;5.00;2.33;;;;;;;-145.18;100.00;47471.13;4947991;28;20319;-70
2021/12/29 01:45:42;;;;;;;10.13;2.73;;;;;;;-145.18;100.00;47478.94;4948341;28;20289;-70
2021/12/29 01:48:07;;;;;;;6.50;3.27;;;;;;;-145.18;100.00;47471.13;4948782;28;20265;-70
2021/12/29 01:50:35;;;;;;;12.47;3.57;;;;;;;-145.18;100.00;47486.75;4948450;28;20127;-69
2021/12/29 01:53:08;;;;;;;6.10;3.13;;;;;;;-145.18;100.00;47476.97;4948039;28;20467;-70
2021/12/29 01:55:34;;;;;;;10.13;2.87;;;;;;;-145.18;100.00;47488.69;4948163;28;20273;-70
2021/12/29 01:57:59;;;;;;;8.40;4.53;;;;;;;-145.18;100.00;47484.78;4948071;28;20273;-70
2021/12/29 02:00:28;;;;;;;10.40;3.70;;;;;;;-145.18;100.00;47465.25;4947998;28;20278;-70
2021/12/29 02:02:54;;;;;;;7.87;3.67;;;;;;;-145.18;100.00;47488.69;4948307;28;20040;-69
2021/12/29 02:05:19;;;;;;;4.27;2.47;;;;;;;-145.18;100.00;47457.44;4946622;28;20289;-70
2021/12/29 02:07:46;;;;;;;8.43;3.17;;;;;;;-145.18;100.00;47478.94;4947776;28;20277;-71
2021/12/29 02:10:13;;;;;;;7.90;2.97;;;;;;;-145.18;100.00;47480.88;4948519;28;20496;-70
2021/12/29 02:12:39;;;;;;;5.47;2.77;;;;;;;-145.18;100.00;47465.25;4947899;28;20746;-70
2021/12/29 02:15:06;;;;;;;5.73;3.43;;;;;;;-145.18;100.00;47494.56;4948203;28;20825;-70
2021/12/29 02:17:32;;;;;;;5.23;2.57;;;;;;;-145.18;100.00;47500.41;4946968;28;20357;-70
2021/12/29 02:19:59;;;;;;;4.97;3.20;;;;;;;-145.18;100.00;47480.88;4947747;28;20826;-70
2021/12/29 02:25:09;;;;;;;6.50;3.27;;;;;;;-145.18;100.00;47482.84;4947408;28;21178;-70
2021/12/29 02:27:37;;;;;;;7.37;3.87;;;;;;;-145.18;100.00;47498.47;4947712;28;20691;-70
2021/12/29 02:30:04;;;;;;;10.57;5.13;;;;;;;-145.18;100.00;47490.66;4947834;28;20637;-70
2021/12/29 02:32:30;;;;;;;9.83;4.30;;;;;;;-145.18;100.00;47492.59;4947165;28;20261;-70
2021/12/29 02:34:55;;;;;;;14.00;5.20;;;;;;;-145.18;100.00;47508.22;4947648;28;20268;-70
2021/12/29 02:37:22;;;;;;;11.80;4.77;;;;;;;-145.18;100.00;47504.31;4947399;28;20508;-71
2021/12/29 02:39:49;;;;;;;11.70;4.20;;;;;;;-145.18;100.00;47516.06;4948501;28;20583;-70
2021/12/29 02:42:15;;;;;;;10.90;4.50;;;;;;;-145.18;100.00;47510.19;4947191;28;20308;-70
2021/12/29 02:44:42;;;;;;;8.80;3.93;;;;;;;-145.18;100.00;47498.47;4947520;28;20282;-70
2021/12/29 02:47:09;;;;;;;4.03;2.63;;;;;;;-145.18;100.00;47488.69;4947134;28;20319;-70
2021/12/29 02:49:34;;;;;;;11.13;4.27;;;;;;;-145.18;100.00;47510.19;4947640;28;20281;-70
2021/12/29 02:52:00;;;;;;;8.80;3.83;;;;;;;-145.18;100.00;47516.06;4946796;28;20924;-70
2021/12/29 02:54:25;;;;;;;9.97;4.07;;;;;;;-145.18;100.00;47512.16;4947543;28;20070;-71
2021/12/29 02:56:54;;;;;;;9.93;4.10;;;;;;;-145.18;100.00;47523.88;4947746;28;20536;-70
2021/12/29 02:59:20;;;;;;;13.47;5.53;;;;;;;-145.18;100.00;47498.47;4947147;28;20055;-70
2021/12/29 03:01:46;;;;;;;10.40;5.17;;;;;;;-145.18;100.00;47506.28;4947340;28;20292;-70
2021/12/29 03:04:11;;;;;;;10.93;4.83;;;;;;;-145.18;100.00;47512.16;4947147;28;20278;-70
2021/12/29 03:06:38;;;;;;;10.17;4.40;;;;;;;-145.18;100.00;47508.22;4946665;28;20050;-70
2021/12/29 03:09:05;;;;;;;10.80;4.83;;;;;;;-145.18;100.00;47500.41;4946849;28;20046;-70
2021/12/29 03:11:31;;;;;;;11.27;4.80;;;;;;;-145.18;100.00;47514.09;4947048;28;20639;-70
2021/12/29 03:13:57;;;;;;;17.87;5.57;;;;;;;-145.18;100.00;47508.22;4947236;28;20285;-70
2021/12/29 03:16:22;;;;;;;10.47;6.23;;;;;;;-145.18;100.00;47508.22;4947080;28;20036;-70
2021/12/29 03:18:48;;;;;;;16.13;6.63;;;;;;;-145.18;100.00;47502.38;4946828;28;20616;-70
2021/12/29 03:21:14;;;;;;;14.10;6.17;;;;;;;-145.18;100.00;47506.28;4946739;28;20039;-70
2021/12/29 03:23:39;;;;;;;16.77;6.70;;;;;;;-145.18;100.00;47523.88;4947077;28;20407;-70
2021/12/29 03:26:06;;;;;;;12.53;6.30;;;;;;;-145.18;100.00;47510.19;4946476;28;20293;-71
2021/12/29 03:28:33;;;;;;;14.63;5.30;;;;;;;-145.18;100.00;47521.91;4947272;28;20409;-70
2021/12/29 03:30:58;;;;;;;16.40;6.20;;;;;;;-145.18;100.00;47512.16;4944526;28;20376;-70
2021/12/29 03:33:28;;;;;;;15.83;6.20;;;;;;;-145.18;100.00;47523.88;4947125;28;20372;-70
2021/12/29 03:36:02;;;;;;;15.90;6.80;;;;;;;-145.18;100.00;47516.06;4946577;28;20722;-70
2021/12/29 03:38:30;;;;;;;13.03;6.33;;;;;;;-145.18;100.00;47519.97;4946875;28;20300;-70
2021/12/29 03:40:58;;;;;;;12.20;7.00;;;;;;;-145.18;100.00;47527.78;4946619;28;20257;-70
2021/12/29 03:43:25;;;;;;;17.70;7.70;;;;;;;-145.18;100.00;47527.78;4946491;28;20281;-70
2021/12/29 03:45:51;;;;;;;18.53;7.93;;;;;;;-145.18;100.00;47527.78;4946424;28;20282;-70
2021/12/29 03:48:20;;;;;;;21.40;9.07;;;;;;;-145.18;100.00;47531.69;4946557;28;20286;-70
2021/12/29 03:50:46;;;;;;;23.87;8.47;;;;;;;-145.18;100.00;47523.88;4946292;28;20316;-70
2021/12/29 03:53:13;;;;;;;21.37;9.07;;;;;;;-145.18;100.00;47543.41;4946708;28;20281;-70
2021/12/29 03:55:42;;;;;;;19.33;9.10;;;;;;;-145.18;100.00;47535.59;4947102;28;20352;-69
2021/12/29 03:58:08;;;;;;;20.77;8.87;;;;;;;-145.18;100.00;47545.34;4946509;28;20962;-69
2021/12/29 04:00:34;;;;;;;22.97;9.07;;;;;;;-145.18;100.00;47523.88;4946284;28;20282;-70
2021/12/29 04:02:59;;;;;;;17.63;7.30;;;;;;;-145.18;100.00;47521.91;4946065;28;20205;-70
2021/12/29 04:05:25;;;;;;;14.53;7.97;;;;;;;-145.18;100.00;47564.91;4946310;28;20381;-69
2021/12/29 04:07:53;;;;;;;23.33;9.20;;;;;;;-145.18;100.00;47541.44;4945989;28;20039;-70
2021/12/29 04:10:20;;;;;;;20.73;8.30;;;;;;;-145.18;100.00;47539.50;4945578;28;20139;-70
2021/12/29 04:12:45;;;;;;;19.43;9.10;;;;;;;-145.18;100.00;47555.13;4945980;28;20274;-69
2021/12/29 04:15:13;;;;;;;21.83;10.67;;;;;;;-145.18;100.00;47543.41;4946124;28;20274;-69
2021/12/29 04:17:40;;;;;;;22.10;10.60;;;;;;;-145.18;100.00;47555.13;4945722;28;20047;-69
2021/12/29 04:23:04;;;;;;;22.25;10.13;;;;;;;-145.18;100.00;47547.31;4945175;28;20816;-69
2021/12/29 04:25:34;;;;;;;21.17;9.50;;;;;;;-145.18;100.00;47549.25;4945795;28;20042;-69
2021/12/29 04:28:01;;;;;;;25.57;10.07;;;;;;;-145.18;100.00;47523.88;4945319;28;20276;-70
2021/12/29 04:30:26;;;;;;;20.57;9.90;;;;;;;-145.18;100.00;47521.91;4945690;28;20274;-70
2021/12/29 04:32:53;;;;;;;21.77;9.40;;;;;;;-145.18;100.00;47545.34;4945163;28;20284;-70
2021/12/29 04:35:19;;;;;;;20.77;10.70;;;;;;;-145.18;100.00;47551.22;4945552;28;20055;-70
2021/12/29 04:37:44;;;;;;;30.07;10.50;;;;;;;-145.18;100.00;47539.50;4945232;28;21033;-70
2021/12/29 04:40:10;;;;;;;23.83;9.93;;;;;;;-145.18;100.00;47525.81;4946809;28;20305;-69
2021/12/29 04:42:36;;;;;;;25.53;9.33;;;;;;;-145.18;100.00;47533.63;4948729;28;20059;-69
2021/12/29 04:45:02;;;;;;;27.37;9.40;;;;;;;-145.18;100.00;47525.81;4948578;28;20054;-69
2021/12/29 04:47:29;;;;;;;23.10;10.20;;;;;;;-145.18;100.00;47525.81;4949135;28;20062;-69
2021/12/29 04:49:59;;;;;;;30.57;11.73;;;;;;;-145.18;100.00;47510.19;4949032;28;20625;-69
2021/12/29 04:52:24;;;;;;;30.03;11.33;;;;;;;-145.18;100.00;47518.00;4948575;28;20365;-70
2021/12/29 04:54:50;;;;;;;26.00;11.00;;;;;;;-145.18;100.00;47518.00;4949123;28;20365;-70
2021/12/29 04:57:15;;;;;;;24.63;11.70;;;;;;;-145.18;100.00;47519.97;4949079;28;20043;-69
2021/12/29 04:59:41;;;;;;;33.70;10.30;;;;;;;-145.18;100.00;47533.63;4948627;28;20069;-69
2021/12/29 05:02:06;;;;;;;26.20;10.27;;;;;;;-145.18;100.00;47527.78;4948294;28;20043;-69
2021/12/29 05:04:34;;;;;;;26.27;10.07;;;;;;;-145.18;100.00;47521.91;4948706;28;20469;-69
2021/12/29 05:09:45;;;;;;;29.38;10.52;;;;;;;-145.18;100.00;47523.88;4949103;28;20287;-69
2021/12/29 05:12:11;;;;;;;31.97;10.63;;;;;;;-145.18;100.00;47516.06;4948242;28;20031;-69
2021/12/29 05:14:37;;;;;;;30.73;11.00;;;;;;;-145.18;100.00;47512.16;4948244;28;20036;-70
2021/12/29 05:17:05;;;;;;;30.30;11.50;;;;;;;-145.18;100.00;47514.09;4948548;28;20766;-70
2021/12/29 05:19:31;;;;;;;20.83;10.30;;;;;;;-145.18;100.00;47519.97;4948567;28;20270;-70
2021/12/29 05:21:56;;;;;;;31.80;11.10;;;;;;;-145.18;100.00;47519.97;4948195;28;20320;-70
2021/12/29 05:24:21;;;;;;;23.37;9.33;;;;;;;-145.18;100.00;47523.88;4948782;28;20071;-70
2021/12/29 05:26:47;;;;;;;25.77;10.00;;;;;;;-145.18;100.00;47512.16;4962861;28;20073;-70
2021/12/29 05:29:12;;;;;;;20.87;9.30;;;;;;;-145.18;100.00;47525.81;4962902;28;20044;-70
2021/12/29 05:31:38;;;;;;;27.73;10.30;;;;;;;-145.18;100.00;47516.06;4948612;28;20051;-70
2021/12/29 05:34:03;;;;;;;24.17;8.03;;;;;;;-145.18;100.00;47500.41;4946731;28;20488;-70
2021/12/29 05:36:29;;;;;;;17.20;9.17;;;;;;;-145.18;100.00;47514.09;4948131;28;20043;-70
2021/12/29 05:38:56;;;;;;;21.43;10.37;;;;;;;-145.18;100.00;47529.72;4949040;28;20819;-70
2021/12/29 05:41:22;;;;;;;27.33;10.33;;;;;;;-145.18;100.00;47502.38;4947796;28;20043;-70
2021/12/29 05:43:48;;;;;;;28.13;10.07;;;;;;;-145.18;100.00;47512.16;4948176;28;20304;-70
2021/12/29 05:46:14;;;;;;;26.50;10.17;;;;;;;-145.18;100.00;47494.56;4948008;28;20865;-70
2021/12/29 05:48:39;;;;;;;23.40;10.90;;;;;;;-145.18;100.00;47498.47;4947978;28;20385;-70
2021/12/29 05:51:05;;;;;;;34.77;11.63;;;;;;;-145.18;100.00;47496.50;4948030;28;20036;-70
2021/12/29 05:53:31;;;;;;;30.87;10.73;;;;;;;-145.18;100.00;47510.19;4947876;28;20403;-70
2021/12/29 05:55:57;;;;;;;27.67;10.87;;;;;;;-145.18;100.00;47519.97;4948336;28;20270;-70
2021/12/29 05:58:22;;;;;;;32.27;10.90;;;;;;;-145.18;100.00;47506.28;4981522;28;20037;-70
2021/12/29 06:00:48;;;;;;;30.73;10.57;;;;;;;-145.18;100.00;47516.06;4955631;28;20048;-70
2021/12/29 06:03:15;;;;;;;26.87;10.63;;;;;;;-145.18;100.00;47504.31;4956087;28;20430;-70
2021/12/29 06:05:40;;;;;;;28.73;10.60;;;;;;;-145.18;100.00;47496.50;4953721;28;20053;-70
2021/12/29 06:08:07;;;;;;;32.70;11.10;;;;;;;-145.18;100.00;47504.31;4953138;28;20278;-70
2021/12/29 06:10:33;;;;;;;27.67;10.87;;;;;;;-145.18;100.00;47496.50;4955795;28;20151;-70
2021/12/29 06:12:58;;;;;;;35.60;11.57;;;;;;;-145.18;100.00;47492.59;4966835;28;21026;-70
2021/12/29 06:15:23;;;;;;;28.37;10.73;;;;;;;-145.18;100.00;47500.41;4967189;28;20035;-70
2021/12/29 06:17:49;;;;;;;28.87;10.03;;;;;;;-145.18;100.00;47506.28;4966909;28;20090;-70
2021/12/29 06:20:15;;;;;;;27.77;10.70;;;;;;;-145.18;100.00;47516.06;4967015;28;20142;-70
2021/12/29 06:22:42;;;;;;;26.23;11.23;;;;;;;-145.18;100.00;47500.41;4966740;28;20045;-70
2021/12/29 06:25:10;;;;;;;32.33;10.93;;;;;;;-145.18;100.00;47496.50;4967662;28;20578;-70
2021/12/29 06:27:35;;;;;;;26.90;10.13;;;;;;;-145.18;100.00;47518.00;4961190;28;20837;-70
2021/12/29 06:30:01;;;;;;;30.20;11.57;;;;;;;-145.18;100.00;47516.06;4947808;28;20288;-70
2021/12/29 06:32:26;;;;;;;29.20;11.43;;;;;;;-145.18;100.00;47523.88;4947421;28;20048;-70
2021/12/29 06:34:52;;;;;;;28.73;11.93;;;;;;;-145.18;100.00;47500.41;4947910;28;20042;-70
2021/12/29 06:37:18;;;;;;;33.43;11.70;;;;;;;-145.18;100.00;47508.22;4947001;28;20649;-70
2021/12/29 06:39:45;;;;;;;37.73;12.50;;;;;;;-145.18;100.00;47498.47;4947924;28;20574;-70
2021/12/29 06:42:11;;;;;;;28.80;12.40;;;;;;;-145.18;100.00;47500.41;4947353;28;20511;-70
2021/12/29 06:44:38;;;;;;;32.13;12.70;;;;;;;-145.18;100.00;47519.97;4947552;28;20739;-69
2021/12/29 06:47:04;;;;;;;27.00;12.70;;;;;;;-145.18;100.00;47519.97;4951713;28;20294;-70
2021/12/29 06:49:30;;;;;;;30.43;12.90;;;;;;;-145.18;100.00;47496.50;4947071;28;20282;-70
2021/12/29 06:51:55;;;;;;;30.10;12.40;;;;;;;-145.18;100.00;47488.69;4951234;28;20297;-70
2021/12/29 06:54:21;;;;;;;43.47;13.10;;;;;;;-145.18;100.00;47514.09;4966369;28;20054;-71
2021/12/29 06:56:46;;;;;;;34.00;12.93;;;;;;;-145.18;100.00;47512.16;4966430;28;20043;-71
2021/12/29 06:59:12;;;;;;;26.40;12.43;;;;;;;-145.18;100.00;47498.47;4966386;28;20039;-70
2021/12/29 07:01:37;;;;;;;27.13;11.33;;;;;;;-145.18;100.00;47498.47;4965891;28;20137;-70
2021/12/29 07:04:03;;;;;;;25.90;11.37;;;;;;;-145.18;100.00;47488.69;4974010;28;20404;-70
2021/12/29 07:06:29;;;;;;;27.63;12.10;;;;;;;-145.18;100.00;47504.31;4985498;28;20082;-70
2021/12/29 07:08:54;;;;;;;22.37;11.17;;;;;;;-145.18;100.00;47494.56;4985665;28;20038;-70
2021/12/29 07:11:20;;;;;;;25.50;10.50;;;;;;;-145.18;100.00;47498.47;4984513;28;20042;-70
2021/12/29 07:13:45;;;;;;;22.37;10.30;;;;;;;-145.18;100.00;47504.31;4985847;28;20045;-70
2021/12/29 07:16:12;;;;;;;27.10;11.77;;;;;;;-145.18;100.00;47508.22;4968291;28;20039;-70
2021/12/29 07:18:37;;;;;;;18.93;9.40;;;;;;;-145.18;100.00;47496.50;4945972;28;20039;-70
2021/12/29 07:21:03;;;;;;;21.90;10.17;;;;;;;-145.18;100.00;47518.00;4964532;28;20280;-70
2021/12/29 07:23:29;;;;;;;27.40;10.00;;;;;;;-145.18;100.00;47488.69;4965568;28;20038;-71
2021/12/29 07:25:55;;;;;;;25.80;9.70;;;;;;;-145.18;100.00;47500.41;4959037;28;20046;-70
2021/12/29 07:28:20;;;;;;;22.13;9.57;;;;;;;-145.18;100.00;47504.31;4945529;28;20051;-71
2021/12/29 07:30:46;;;;;;;21.23;9.63;;;;;;;-145.18;100.00;47490.66;4944762;28;20035;-70
2021/12/29 07:33:11;;;;;;;19.07;9.80;;;;;;;-145.18;100.00;47500.41;4950945;28;20050;-70
2021/12/29 07:35:37;;;;;;;26.10;9.00;;;;;;;-145.18;100.00;47504.31;4984041;28;20039;-70
2021/12/29 07:38:03;;;;;;;17.93;9.53;;;;;;;-145.18;100.00;47494.56;4997401;28;20489;-70
2021/12/29 07:40:28;;;;;;;23.13;9.10;;;;;;;-145.18;100.00;47494.56;4958701;28;20265;-70
2021/12/29 07:42:54;;;;;;;22.23;8.97;;;;;;;-145.18;100.00;47480.88;4959756;28;20054;-70
2021/12/29 07:45:19;;;;;;;17.20;10.30;;;;;;;-145.18;100.00;47508.22;4961847;28;20047;-70
2021/12/29 07:47:49;;;;;;;20.67;9.77;;;;;;;-145.18;100.00;47510.19;4964406;28;20062;-70
2021/12/29 07:50:18;;;;;;;17.63;8.53;;;;;;;-145.18;100.00;47508.22;4974062;28;20084;-70
2021/12/29 07:52:47;;;;;;;32.33;11.03;;;;;;;-145.18;100.00;47500.41;4950605;28;20292;-70
2021/12/29 07:55:16;;;;;;;21.07;8.53;;;;;;;-145.18;100.00;47488.69;4965228;28;20276;-70
2021/12/29 07:57:42;;;;;;;22.70;9.63;;;;;;;-145.18;100.00;47496.50;4965515;28;20281;-70
2021/12/29 08:00:09;;;;;;;14.83;8.43;;;;;;;-145.18;100.00;47484.78;4965071;28;20276;-70
2021/12/29 08:02:35;;;;;;;17.93;8.90;;;;;;;-145.18;100.00;47480.88;4964946;28;20125;-70
2021/12/29 08:05:00;;;;;;;20.93;8.33;;;;;;;-145.18;100.00;47506.28;4964633;28;20360;-70
2021/12/29 08:07:26;;;;;;;16.33;8.60;;;;;;;-145.18;100.00;47502.38;4960242;28;20374;-70
2021/12/29 08:09:52;;;;;;;17.50;9.10;;;;;;;-145.18;100.00;47482.84;4945600;28;20127;-70
2021/12/29 08:12:18;;;;;;;25.23;9.23;;;;;;;-145.18;100.00;47500.41;4945225;28;20071;-70
2021/12/29 08:14:45;;;;;;;17.30;8.87;;;;;;;-145.18;100.00;47461.34;4950196;28;20822;-70
2021/12/29 08:17:11;;;;;;;21.53;9.57;;;;;;;-145.18;100.00;47494.56;4948605;28;20048;-70
2021/12/29 08:19:36;;;;;;;23.17;10.77;;;;;;;-145.18;100.00;47492.59;4948170;28;20297;-70
2021/12/29 08:22:02;;;;;;;17.17;9.43;;;;;;;-145.18;100.00;47492.59;4949325;28;20047;-70
2021/12/29 08:24:27;;;;;;;15.63;9.90;;;;;;;-145.18;100.00;47494.56;4949418;28;20408;-70
2021/12/29 08:26:53;;;;;;;21.50;9.63;;;;;;;-145.18;100.00;47488.69;4948758;28;20403;-70
2021/12/29 08:29:18;;;;;;;18.33;9.67;;;;;;;-145.18;100.00;47488.69;4947820;28;20047;-70
2021/12/29 08:31:44;;;;;;;23.27;9.87;;;;;;;-145.18;100.00;47496.50;4949039;28;20043;-70
2021/12/29 08:34:09;;;;;;;22.57;9.97;;;;;;;-145.18;100.00;47512.16;4949648;28;20511;-70
2021/12/29 08:36:34;;;;;;;19.17;9.73;;;;;;;-145.18;100.00;47480.88;4952857;28;20472;-70
2021/12/29 08:39:00;;;;;;;17.90;9.33;;;;;;;-145.18;100.00;47498.47;4956870;28;20547;-70
2021/12/29 08:41:25;;;;;;;18.77;9.40;;;;;;;-145.18;100.00;47492.59;4951575;28;20055;-70
2021/12/29 08:43:51;;;;;;;26.40;10.20;;;;;;;-145.18;100.00;47473.06;4965189;28;20043;-71
2021/12/29 08:46:17;;;;;;;19.33;9.47;;;;;;;-145.18;100.00;47492.59;4949147;28;20047;-70
2021/12/29 08:48:42;;;;;;;15.07;9.33;;;;;;;-145.18;100.00;47480.88;4950916;28;20043;-69
2021/12/29 08:51:08;;;;;;;19.77;9.17;;;;;;;-145.18;100.00;47471.13;4948520;28;20132;-70
2021/12/29 08:53:35;;;;;;;19.77;9.33;;;;;;;-145.18;100.00;47476.97;4949032;28;20078;-69
2021/12/29 08:56:01;;;;;;;23.83;8.90;;;;;;;-145.18;100.00;47461.34;4948640;28;20039;-70
2021/12/29 08:58:27;;;;;;;16.80;8.40;;;;;;;-145.18;100.00;47494.56;4948273;28;20276;-69
2021/12/29 09:00:54;;;;;;;19.77;8.43;;;;;;;-145.18;100.00;47467.22;4948901;28;20097;-70
2021/12/29 09:03:20;;;;;;;20.70;8.27;;;;;;;-145.18;100.00;47480.88;4949023;28;20262;-70
2021/12/29 09:05:46;;;;;;;16.10;7.43;;;;;;;-145.18;100.00;47478.94;4948377;28;20677;-69
2021/12/29 09:08:11;;;;;;;16.90;8.50;;;;;;;-145.18;100.00;47459.41;4948487;28;20055;-69
2021/12/29 09:10:37;;;;;;;16.00;7.23;;;;;;;-145.18;100.00;47469.16;4948570;28;20067;-70
2021/12/29 09:13:04;;;;;;;21.53;7.67;;;;;;;-145.18;100.00;47480.88;4948195;28;20051;-69
2021/12/29 09:15:30;;;;;;;15.23;8.17;;;;;;;-145.18;100.00;47461.34;4948163;28;20692;-70
2021/12/29 09:17:56;;;;;;;18.40;8.07;;;;;;;-145.18;100.00;47467.22;4947842;28;20285;-70
2021/12/29 09:20:30;;;;;;;19.43;6.67;;;;;;;-145.18;100.00;47480.88;4946825;28;20270;-69
2021/12/29 09:23:05;;;;;;;13.87;6.90;;;;;;;-145.18;100.00;47471.13;4948347;28;20051;-69
2021/12/29 09:25:32;;;;;;;16.98;6.85;;;;;;;-145.18;100.00;47476.97;4948691;28;20477;-69
2021/12/29 09:27:58;;;;;;;13.17;6.47;;;;;;;-145.18;100.00;47465.25;4947534;28;20047;-70
2021/12/29 09:30:30;;;;;;;15.70;7.03;;;;;;;-145.18;100.00;47484.78;4948439;28;20857;-70
2021/12/29 09:32:56;;;;;;;18.30;6.47;;;;;;;-145.18;100.00;47463.31;4948582;28;20061;-69
2021/12/29 09:35:22;;;;;;;24.20;6.97;;;;;;;-145.18;100.00;47463.31;4948094;28;20817;-69
2021/12/29 09:37:51;;;;;;;16.77;6.37;;;;;;;-145.18;100.00;47469.16;4947400;28;20043;-70
2021/12/29 09:40:18;;;;;;;15.47;6.90;;;;;;;-145.18;100.00;47455.47;4947791;28;20280;-69
2021/12/29 09:42:44;;;;;;;22.17;6.70;;;;;;;-145.18;100.00;47455.47;4948081;28;20300;-70
2021/12/29 09:45:10;;;;;;;21.50;6.87;;;;;;;-145.18;100.00;47455.47;4948413;28;20770;-69
2021/12/29 09:47:36;;;;;;;16.10;6.60;;;;;;;-145.18;100.00;47465.25;4948070;28;20133;-70
2021/12/29 09:50:08;;;;;;;15.67;6.13;;;;;;;-145.18;100.00;47445.72;4947658;28;20039;-69
2021/12/29 09:52:34;;;;;;;18.90;7.63;;;;;;;-145.18;100.00;47441.81;4948044;28;20353;-69
2021/12/29 09:55:04;;;;;;;12.07;6.70;;;;;;;-145.18;100.00;47455.47;4948135;28;20708;-69
2021/12/29 09:57:32;;;;;;;14.70;6.57;;;;;;;-145.18;100.00;47449.63;4948192;28;20036;-69
2021/12/29 09:59:57;;;;;;;14.27;7.40;;;;;;;-145.18;100.00;47449.63;4947593;28;20363;-70
2021/12/29 10:02:22;;;;;;;17.17;7.37;;;;;;;-145.18;100.00;47457.44;4947724;28;20278;-69
2021/12/29 10:04:48;;;;;;;14.57;7.87;;;;;;;-145.18;100.00;47465.25;4961277;28;20046;-69
2021/12/29 10:07:20;;;;;;;13.87;7.93;;;;;;;-145.18;100.00;47467.22;4967105;28;20570;-69
2021/12/29 10:09:46;;;;;;;12.97;7.43;;;;;;;-145.18;100.00;47449.63;4966723;28;20038;-69
2021/12/29 10:12:21;;;;;;;19.77;8.53;;;;;;;-145.18;100.00;47467.22;4946961;28;20272;-69
2021/12/29 10:14:53;;;;;;;14.95;8.43;;;;;;;-145.18;100.00;47457.44;4952802;28;20281;-69
2021/12/29 10:17:18;;;;;;;17.37;8.73;;;;;;;-145.18;100.00;47471.13;4960164;28;20096;-69
2021/12/29 10:19:45;;;;;;;13.00;9.07;;;;;;;-145.18;100.00;47455.47;4955473;28;20277;-70
2021/12/29 10:22:22;;;;;;;14.63;9.47;;;;;;;-145.18;100.00;47457.44;4947038;28;20047;-69
2021/12/29 10:24:48;;;;;;;17.00;9.63;;;;;;;-145.18;100.00;47445.72;4948265;28;20276;-69
2021/12/29 10:27:19;;;;;;;16.50;8.83;;;;;;;-145.18;100.00;47434.00;4946490;28;21009;-70
2021/12/29 10:29:45;;;;;;;21.97;9.47;;;;;;;-145.18;100.00;47467.22;4946274;28;20035;-69
2021/12/29 10:32:11;;;;;;;14.53;8.87;;;;;;;-145.18;100.00;47451.56;4946480;28;20339;-69
2021/12/29 10:34:36;;;;;;;15.87;9.30;;;;;;;-145.18;100.00;47465.25;4947579;28;20050;-70
2021/12/29 10:37:08;;;;;;;19.97;9.43;;;;;;;-145.18;100.00;47463.31;4947246;28;20042;-70
2021/12/29 10:39:40;;;;;;;18.77;9.60;;;;;;;-145.18;100.00;47469.16;4946843;28;20035;-70
2021/12/29 10:42:22;;;;;;;15.67;8.50;;;;;;;-145.18;100.00;47453.53;4946762;28;20281;-69
2021/12/29 10:44:52;;;;;;;19.60;8.57;;;;;;;-145.18;100.00;47449.63;4947704;28;20639;-70
2021/12/29 10:47:31;;;;;;;15.13;9.80;;;;;;;-145.18;100.00;47453.53;4946930;28;20296;-70
2021/12/29 10:50:07;;;;;;;19.67;9.43;;;;;;;-145.18;100.00;47453.53;4946844;28;20646;-69
2021/12/29 10:52:40;;;;;;;19.30;9.77;;;;;;;-145.18;100.00;47439.84;4947249;28;20643;-69
2021/12/29 10:55:14;;;;;;;15.77;9.03;;;;;;;-145.18;100.00;47457.44;4946815;28;20284;-69
2021/12/29 10:57:40;;;;;;;24.03;9.27;;;;;;;-145.18;100.00;47467.22;4947340;28;20367;-70
2021/12/29 11:00:12;;;;;;;19.70;9.13;;;;;;;-145.18;100.00;47469.16;4947083;28;20316;-70
2021/12/29 11:02:37;;;;;;;15.13;9.37;;;;;;;-145.18;100.00;47461.34;4946993;28;20054;-71
2021/12/29 11:05:06;;;;;;;15.10;9.10;;;;;;;-145.18;100.00;47445.72;4947023;28;20273;-71
2021/12/29 11:07:34;;;;;;;16.27;9.17;;;;;;;-145.18;100.00;47467.22;4946603;28;20558;-71
2021/12/29 11:10:09;;;;;;;21.07;9.13;;;;;;;-145.18;100.00;47443.75;4946784;28;20305;-71